<?xml version="1.0" encoding="UTF-8" standalone="no" ?>
<gpx xmlns="http://www.topografix.com/GPX/1/1" xmlns:xsi="http://www.w3.org/2001/XMLSchema-instance" xsi:schemaLocation="http://www.topografix.com/GPX/1/1 http://www.topografix.com/GPX/1/1/gpx.xsd" version="1.1" creator="VisuGPX - https://www.visugpx.com">
  <metadata>
    <name>Getigne_Autour10-22km</name>
    <desc><![CDATA[gnerando idor: 7899428_7903072_7903246_9380870]]></desc>
  </metadata>
  <trk>
    <name><![CDATA[Gétigné_Anerie RousselinRoyal_21.8km-9380870]]></name>
    <extensions>
      <line xmlns="http://www.topografix.com/GPX/gpx_style/0/2">
        <color>00FFFF</color>
        <width>4</width>
      </line>
    </extensions>
    <trkseg>
      <trkpt lat="47.06854" lon="-1.22731">
        <ele>49</ele>
        <time>2023-11-01T19:02:35Z</time>
      </trkpt>
      <trkpt lat="47.06828" lon="-1.22877">
        <ele>44</ele>
        <time>2023-11-01T19:04:52Z</time>
      </trkpt>
      <trkpt lat="47.06746" lon="-1.22898">
        <ele>41</ele>
        <time>2023-11-01T19:06:43Z</time>
      </trkpt>
      <trkpt lat="47.06688" lon="-1.22988">
        <ele>37</ele>
        <time>2023-11-01T19:08:36Z</time>
      </trkpt>
      <trkpt lat="47.06629" lon="-1.23104">
        <ele>33</ele>
        <time>2023-11-01T19:10:47Z</time>
      </trkpt>
      <trkpt lat="47.06618" lon="-1.23187">
        <ele>33</ele>
        <time>2023-11-01T19:12:04Z</time>
      </trkpt>
      <trkpt lat="47.06649" lon="-1.23262">
        <ele>32</ele>
        <time>2023-11-01T19:13:24Z</time>
      </trkpt>
      <trkpt lat="47.06702" lon="-1.23456">
        <ele>31</ele>
        <time>2023-11-01T19:16:34Z</time>
      </trkpt>
      <trkpt lat="47.06865" lon="-1.23699">
        <ele>35</ele>
        <time>2023-11-01T19:21:44Z</time>
      </trkpt>
      <trkpt lat="47.0692" lon="-1.23858">
        <ele>31</ele>
        <time>2023-11-01T19:24:26Z</time>
      </trkpt>
      <trkpt lat="47.06977" lon="-1.23907">
        <ele>33</ele>
        <time>2023-11-01T19:25:54Z</time>
      </trkpt>
      <trkpt lat="47.0699" lon="-1.23987">
        <ele>35</ele>
        <time>2023-11-01T19:27:09Z</time>
      </trkpt>
      <trkpt lat="47.07082" lon="-1.24143">
        <ele>41</ele>
        <time>2023-11-01T19:30:17Z</time>
      </trkpt>
      <trkpt lat="47.07138" lon="-1.24241">
        <ele>41</ele>
        <time>2023-11-01T19:32:13Z</time>
      </trkpt>
      <trkpt lat="47.07085" lon="-1.24284">
        <ele>42</ele>
        <time>2023-11-01T19:33:34Z</time>
      </trkpt>
      <trkpt lat="47.06953" lon="-1.24635">
        <ele>29</ele>
        <time>2023-11-01T19:39:38Z</time>
      </trkpt>
      <trkpt lat="47.07079" lon="-1.24653">
        <ele>32</ele>
        <time>2023-11-01T19:42:27Z</time>
      </trkpt>
      <trkpt lat="47.07006" lon="-1.24838">
        <ele>26</ele>
        <time>2023-11-01T19:45:41Z</time>
      </trkpt>
      <trkpt lat="47.06968" lon="-1.24876">
        <ele>24</ele>
        <time>2023-11-01T19:46:43Z</time>
      </trkpt>
      <trkpt lat="47.07021" lon="-1.24984">
        <ele>26</ele>
        <time>2023-11-01T19:48:44Z</time>
      </trkpt>
      <trkpt lat="47.07144" lon="-1.25019">
        <ele>26</ele>
        <time>2023-11-01T19:51:31Z</time>
      </trkpt>
      <trkpt lat="47.07141" lon="-1.2504">
        <ele>25</ele>
        <time>2023-11-01T19:51:50Z</time>
      </trkpt>
      <trkpt lat="47.07208" lon="-1.25228">
        <ele>22</ele>
        <time>2023-11-01T19:55:03Z</time>
      </trkpt>
      <trkpt lat="47.0725" lon="-1.25248">
        <ele>21</ele>
        <time>2023-11-01T19:56:02Z</time>
      </trkpt>
      <trkpt lat="47.07326" lon="-1.2515">
        <ele>23</ele>
        <time>2023-11-01T19:58:17Z</time>
      </trkpt>
      <trkpt lat="47.07375" lon="-1.25156">
        <ele>24</ele>
        <time>2023-11-01T19:59:23Z</time>
      </trkpt>
      <trkpt lat="47.07407" lon="-1.25115">
        <ele>27</ele>
        <time>2023-11-01T20:00:19Z</time>
      </trkpt>
      <trkpt lat="47.07455" lon="-1.25164">
        <ele>25</ele>
        <time>2023-11-01T20:01:37Z</time>
      </trkpt>
      <trkpt lat="47.07479" lon="-1.2519">
        <ele>25</ele>
        <time>2023-11-01T20:02:17Z</time>
      </trkpt>
      <trkpt lat="47.07512" lon="-1.25203">
        <ele>25</ele>
        <time>2023-11-01T20:03:03Z</time>
      </trkpt>
      <trkpt lat="47.07529" lon="-1.25213">
        <ele>25</ele>
        <time>2023-11-01T20:03:27Z</time>
      </trkpt>
      <trkpt lat="47.07539" lon="-1.25209">
        <ele>25</ele>
        <time>2023-11-01T20:03:41Z</time>
      </trkpt>
      <trkpt lat="47.0755" lon="-1.25217">
        <ele>25</ele>
        <time>2023-11-01T20:03:57Z</time>
      </trkpt>
      <trkpt lat="47.07606" lon="-1.25177">
        <ele>27</ele>
        <time>2023-11-01T20:05:21Z</time>
      </trkpt>
      <trkpt lat="47.07594" lon="-1.25137">
        <ele>27</ele>
        <time>2023-11-01T20:06:00Z</time>
      </trkpt>
      <trkpt lat="47.07597" lon="-1.25079">
        <ele>29</ele>
        <time>2023-11-01T20:06:53Z</time>
      </trkpt>
      <trkpt lat="47.07622" lon="-1.25074">
        <ele>30</ele>
        <time>2023-11-01T20:07:27Z</time>
      </trkpt>
      <trkpt lat="47.07627" lon="-1.25002">
        <ele>31</ele>
        <time>2023-11-01T20:08:33Z</time>
      </trkpt>
      <trkpt lat="47.07635" lon="-1.2498">
        <ele>31</ele>
        <time>2023-11-01T20:08:55Z</time>
      </trkpt>
      <trkpt lat="47.07657" lon="-1.24982">
        <ele>31</ele>
        <time>2023-11-01T20:09:25Z</time>
      </trkpt>
      <trkpt lat="47.07672" lon="-1.24892">
        <ele>30</ele>
        <time>2023-11-01T20:10:49Z</time>
      </trkpt>
      <trkpt lat="47.07654" lon="-1.24878">
        <ele>30</ele>
        <time>2023-11-01T20:11:16Z</time>
      </trkpt>
      <trkpt lat="47.0763" lon="-1.24904">
        <ele>31</ele>
        <time>2023-11-01T20:11:56Z</time>
      </trkpt>
      <trkpt lat="47.07641" lon="-1.2485">
        <ele>32</ele>
        <time>2023-11-01T20:12:47Z</time>
      </trkpt>
      <trkpt lat="47.07547" lon="-1.24818">
        <ele>39</ele>
        <time>2023-11-01T20:14:56Z</time>
      </trkpt>
      <trkpt lat="47.07506" lon="-1.24898">
        <ele>37</ele>
        <time>2023-11-01T20:16:27Z</time>
      </trkpt>
      <trkpt lat="47.07478" lon="-1.24865">
        <ele>39</ele>
        <time>2023-11-01T20:17:15Z</time>
      </trkpt>
      <trkpt lat="47.07432" lon="-1.24597">
        <ele>44</ele>
        <time>2023-11-01T20:21:26Z</time>
      </trkpt>
      <trkpt lat="47.07397" lon="-1.24439">
        <ele>41</ele>
        <time>2023-11-01T20:23:57Z</time>
      </trkpt>
      <trkpt lat="47.07392" lon="-1.24353">
        <ele>42</ele>
        <time>2023-11-01T20:25:15Z</time>
      </trkpt>
      <trkpt lat="47.07396" lon="-1.24046">
        <ele>45</ele>
        <time>2023-11-01T20:29:54Z</time>
      </trkpt>
      <trkpt lat="47.0743" lon="-1.23851">
        <ele>46</ele>
        <time>2023-11-01T20:32:57Z</time>
      </trkpt>
      <trkpt lat="47.07432" lon="-1.23578">
        <ele>48</ele>
        <time>2023-11-01T20:37:06Z</time>
      </trkpt>
      <trkpt lat="47.07416" lon="-1.23332">
        <ele>50</ele>
        <time>2023-11-01T20:40:50Z</time>
      </trkpt>
      <trkpt lat="47.07401" lon="-1.23096">
        <ele>53</ele>
        <time>2023-11-01T20:44:26Z</time>
      </trkpt>
      <trkpt lat="47.07337" lon="-1.22877">
        <ele>55</ele>
        <time>2023-11-01T20:48:02Z</time>
      </trkpt>
      <trkpt lat="47.07307" lon="-1.22772">
        <ele>54</ele>
        <time>2023-11-01T20:49:46Z</time>
      </trkpt>
      <trkpt lat="47.07295" lon="-1.22575">
        <ele>55</ele>
        <time>2023-11-01T20:52:45Z</time>
      </trkpt>
      <trkpt lat="47.07266" lon="-1.22435">
        <ele>54</ele>
        <time>2023-11-01T20:54:58Z</time>
      </trkpt>
      <trkpt lat="47.07269" lon="-1.22387">
        <ele>54</ele>
        <time>2023-11-01T20:55:42Z</time>
      </trkpt>
      <trkpt lat="47.0725" lon="-1.22313">
        <ele>55</ele>
        <time>2023-11-01T20:56:54Z</time>
      </trkpt>
      <trkpt lat="47.07203" lon="-1.22341">
        <ele>55</ele>
        <time>2023-11-01T20:58:02Z</time>
      </trkpt>
      <trkpt lat="47.07144" lon="-1.22164">
        <ele>60</ele>
        <time>2023-11-01T21:01:01Z</time>
      </trkpt>
      <trkpt lat="47.07068" lon="-1.22233">
        <ele>60</ele>
        <time>2023-11-01T21:03:00Z</time>
      </trkpt>
      <trkpt lat="47.06992" lon="-1.22293">
        <ele>61</ele>
        <time>2023-11-01T21:04:55Z</time>
      </trkpt>
      <trkpt lat="47.06913" lon="-1.22293">
        <ele>61</ele>
        <time>2023-11-01T21:06:41Z</time>
      </trkpt>
      <trkpt lat="47.06924" lon="-1.22134">
        <ele>63</ele>
        <time>2023-11-01T21:09:06Z</time>
      </trkpt>
      <trkpt lat="47.06773" lon="-1.21902">
        <ele>68</ele>
        <time>2023-11-01T21:13:58Z</time>
      </trkpt>
      <trkpt lat="47.06518" lon="-1.2237">
        <ele>61</ele>
        <time>2023-11-01T21:23:02Z</time>
      </trkpt>
      <trkpt lat="47.06483" lon="-1.22323">
        <ele>61</ele>
        <time>2023-11-01T21:24:06Z</time>
      </trkpt>
      <trkpt lat="47.06392" lon="-1.22456">
        <ele>54</ele>
        <time>2023-11-01T21:26:57Z</time>
      </trkpt>
      <trkpt lat="47.06328" lon="-1.22229">
        <ele>56</ele>
        <time>2023-11-01T21:30:40Z</time>
      </trkpt>
      <trkpt lat="47.06319" lon="-1.22018">
        <ele>57</ele>
        <time>2023-11-01T21:33:53Z</time>
      </trkpt>
      <trkpt lat="47.06254" lon="-1.21868">
        <ele>59</ele>
        <time>2023-11-01T21:36:34Z</time>
      </trkpt>
      <trkpt lat="47.06173" lon="-1.21546">
        <ele>65</ele>
        <time>2023-11-01T21:41:46Z</time>
      </trkpt>
      <trkpt lat="47.05942" lon="-1.2098">
        <ele>58</ele>
        <time>2023-11-01T21:51:46Z</time>
      </trkpt>
      <trkpt lat="47.05834" lon="-1.20838">
        <ele>59</ele>
        <time>2023-11-01T21:54:59Z</time>
      </trkpt>
      <trkpt lat="47.0572" lon="-1.20602">
        <ele>63</ele>
        <time>2023-11-01T21:59:22Z</time>
      </trkpt>
      <trkpt lat="47.05571" lon="-1.20117">
        <ele>66</ele>
        <time>2023-11-01T22:07:26Z</time>
      </trkpt>
      <trkpt lat="47.05688" lon="-1.19883">
        <ele>72</ele>
        <time>2023-11-01T22:11:50Z</time>
      </trkpt>
      <trkpt lat="47.05926" lon="-1.19931">
        <ele>73</ele>
        <time>2023-11-01T22:17:11Z</time>
      </trkpt>
      <trkpt lat="47.05802" lon="-1.19291">
        <ele>72</ele>
        <time>2023-11-01T22:27:16Z</time>
      </trkpt>
      <trkpt lat="47.05626" lon="-1.1916">
        <ele>72</ele>
        <time>2023-11-01T22:31:39Z</time>
      </trkpt>
      <trkpt lat="47.05487" lon="-1.19154">
        <ele>70</ele>
        <time>2023-11-01T22:34:44Z</time>
      </trkpt>
      <trkpt lat="47.05281" lon="-1.18818">
        <ele>69</ele>
        <time>2023-11-01T22:41:35Z</time>
      </trkpt>
      <trkpt lat="47.05152" lon="-1.19021">
        <ele>70</ele>
        <time>2023-11-01T22:45:48Z</time>
      </trkpt>
      <trkpt lat="47.0501" lon="-1.19085">
        <ele>71</ele>
        <time>2023-11-01T22:49:06Z</time>
      </trkpt>
      <trkpt lat="47.04879" lon="-1.19424">
        <ele>69</ele>
        <time>2023-11-01T22:55:00Z</time>
      </trkpt>
      <trkpt lat="47.04999" lon="-1.19594">
        <ele>64</ele>
        <time>2023-11-01T22:58:43Z</time>
      </trkpt>
      <trkpt lat="47.0498" lon="-1.19735">
        <ele>64</ele>
        <time>2023-11-01T23:00:54Z</time>
      </trkpt>
      <trkpt lat="47.04705" lon="-1.20302">
        <ele>49</ele>
        <time>2023-11-01T23:11:26Z</time>
      </trkpt>
      <trkpt lat="47.04767" lon="-1.20396">
        <ele>53</ele>
        <time>2023-11-01T23:13:25Z</time>
      </trkpt>
      <trkpt lat="47.04746" lon="-1.20443">
        <ele>52</ele>
        <time>2023-11-01T23:14:17Z</time>
      </trkpt>
      <trkpt lat="47.047" lon="-1.20602">
        <ele>43</ele>
        <time>2023-11-01T23:16:54Z</time>
      </trkpt>
      <trkpt lat="47.04761" lon="-1.20611">
        <ele>43</ele>
        <time>2023-11-01T23:18:15Z</time>
      </trkpt>
      <trkpt lat="47.0467" lon="-1.20649">
        <ele>37</ele>
        <time>2023-11-01T23:20:22Z</time>
      </trkpt>
      <trkpt lat="47.04615" lon="-1.20538">
        <ele>38</ele>
        <time>2023-11-01T23:22:26Z</time>
      </trkpt>
      <trkpt lat="47.04647" lon="-1.20216">
        <ele>42</ele>
        <time>2023-11-01T23:27:22Z</time>
      </trkpt>
      <trkpt lat="47.04451" lon="-1.20126">
        <ele>43</ele>
        <time>2023-11-01T23:31:56Z</time>
      </trkpt>
      <trkpt lat="47.04343" lon="-1.20156">
        <ele>43</ele>
        <time>2023-11-01T23:34:23Z</time>
      </trkpt>
      <trkpt lat="47.04262" lon="-1.20236">
        <ele>38</ele>
        <time>2023-11-01T23:36:33Z</time>
      </trkpt>
      <trkpt lat="47.04239" lon="-1.2025">
        <ele>36</ele>
        <time>2023-11-01T23:37:07Z</time>
      </trkpt>
      <trkpt lat="47.04226" lon="-1.20271">
        <ele>37</ele>
        <time>2023-11-01T23:37:32Z</time>
      </trkpt>
      <trkpt lat="47.04185" lon="-1.20226">
        <ele>35</ele>
        <time>2023-11-01T23:38:41Z</time>
      </trkpt>
      <trkpt lat="47.04187" lon="-1.20202">
        <ele>37</ele>
        <time>2023-11-01T23:39:03Z</time>
      </trkpt>
      <trkpt lat="47.04235" lon="-1.20197">
        <ele>41</ele>
        <time>2023-11-01T23:40:07Z</time>
      </trkpt>
      <trkpt lat="47.04221" lon="-1.20161">
        <ele>43</ele>
        <time>2023-11-01T23:40:45Z</time>
      </trkpt>
      <trkpt lat="47.04183" lon="-1.20118">
        <ele>47</ele>
        <time>2023-11-01T23:41:49Z</time>
      </trkpt>
      <trkpt lat="47.04196" lon="-1.20094">
        <ele>51</ele>
        <time>2023-11-01T23:42:17Z</time>
      </trkpt>
      <trkpt lat="47.04263" lon="-1.20114">
        <ele>51</ele>
        <time>2023-11-01T23:43:48Z</time>
      </trkpt>
      <trkpt lat="47.04314" lon="-1.20095">
        <ele>53</ele>
        <time>2023-11-01T23:44:58Z</time>
      </trkpt>
      <trkpt lat="47.04397" lon="-1.19966">
        <ele>65</ele>
        <time>2023-11-01T23:47:39Z</time>
      </trkpt>
      <trkpt lat="47.04629" lon="-1.19737">
        <ele>72</ele>
        <time>2023-11-01T23:53:52Z</time>
      </trkpt>
      <trkpt lat="47.04571" lon="-1.19276">
        <ele>75</ele>
        <time>2023-11-02T00:00:59Z</time>
      </trkpt>
      <trkpt lat="47.04497" lon="-1.19147">
        <ele>76</ele>
        <time>2023-11-02T00:03:32Z</time>
      </trkpt>
      <trkpt lat="47.04455" lon="-1.18989">
        <ele>76</ele>
        <time>2023-11-02T00:06:06Z</time>
      </trkpt>
      <trkpt lat="47.04299" lon="-1.19038">
        <ele>73</ele>
        <time>2023-11-02T00:09:39Z</time>
      </trkpt>
      <trkpt lat="47.0426" lon="-1.19106">
        <ele>72</ele>
        <time>2023-11-02T00:11:00Z</time>
      </trkpt>
      <trkpt lat="47.04167" lon="-1.19532">
        <ele>65</ele>
        <time>2023-11-02T00:17:47Z</time>
      </trkpt>
      <trkpt lat="47.04042" lon="-1.19729">
        <ele>46</ele>
        <time>2023-11-02T00:21:52Z</time>
      </trkpt>
      <trkpt lat="47.04065" lon="-1.20008">
        <ele>43</ele>
        <time>2023-11-02T00:26:07Z</time>
      </trkpt>
      <trkpt lat="47.0409" lon="-1.20084">
        <ele>42</ele>
        <time>2023-11-02T00:27:24Z</time>
      </trkpt>
      <trkpt lat="47.04133" lon="-1.20124">
        <ele>42</ele>
        <time>2023-11-02T00:28:32Z</time>
      </trkpt>
      <trkpt lat="47.04148" lon="-1.20185">
        <ele>37</ele>
        <time>2023-11-02T00:29:31Z</time>
      </trkpt>
      <trkpt lat="47.04178" lon="-1.2021">
        <ele>36</ele>
        <time>2023-11-02T00:30:17Z</time>
      </trkpt>
      <trkpt lat="47.04185" lon="-1.20255">
        <ele>33</ele>
        <time>2023-11-02T00:30:59Z</time>
      </trkpt>
      <trkpt lat="47.0417" lon="-1.20309">
        <ele>35</ele>
        <time>2023-11-02T00:31:52Z</time>
      </trkpt>
      <trkpt lat="47.04197" lon="-1.20405">
        <ele>47</ele>
        <time>2023-11-02T00:33:26Z</time>
      </trkpt>
      <trkpt lat="47.04229" lon="-1.20468">
        <ele>54</ele>
        <time>2023-11-02T00:34:38Z</time>
      </trkpt>
      <trkpt lat="47.0424" lon="-1.20622">
        <ele>62</ele>
        <time>2023-11-02T00:36:59Z</time>
      </trkpt>
      <trkpt lat="47.04273" lon="-1.20782">
        <ele>65</ele>
        <time>2023-11-02T00:39:31Z</time>
      </trkpt>
      <trkpt lat="47.04344" lon="-1.20933">
        <ele>70</ele>
        <time>2023-11-02T00:42:17Z</time>
      </trkpt>
      <trkpt lat="47.04463" lon="-1.20975">
        <ele>70</ele>
        <time>2023-11-02T00:45:01Z</time>
      </trkpt>
      <trkpt lat="47.04508" lon="-1.21037">
        <ele>69</ele>
        <time>2023-11-02T00:46:23Z</time>
      </trkpt>
      <trkpt lat="47.0449" lon="-1.2108">
        <ele>68</ele>
        <time>2023-11-02T00:47:09Z</time>
      </trkpt>
      <trkpt lat="47.04485" lon="-1.21152">
        <ele>65</ele>
        <time>2023-11-02T00:48:15Z</time>
      </trkpt>
      <trkpt lat="47.04567" lon="-1.21188">
        <ele>61</ele>
        <time>2023-11-02T00:50:09Z</time>
      </trkpt>
      <trkpt lat="47.04586" lon="-1.21158">
        <ele>61</ele>
        <time>2023-11-02T00:50:46Z</time>
      </trkpt>
      <trkpt lat="47.04677" lon="-1.21244">
        <ele>57</ele>
        <time>2023-11-02T00:53:11Z</time>
      </trkpt>
      <trkpt lat="47.04733" lon="-1.21354">
        <ele>59</ele>
        <time>2023-11-02T00:55:16Z</time>
      </trkpt>
      <trkpt lat="47.04802" lon="-1.21405">
        <ele>60</ele>
        <time>2023-11-02T00:56:59Z</time>
      </trkpt>
      <trkpt lat="47.0489" lon="-1.21319">
        <ele>56</ele>
        <time>2023-11-02T00:59:20Z</time>
      </trkpt>
      <trkpt lat="47.0491" lon="-1.21186">
        <ele>49</ele>
        <time>2023-11-02T01:01:24Z</time>
      </trkpt>
      <trkpt lat="47.04972" lon="-1.21087">
        <ele>40</ele>
        <time>2023-11-02T01:03:26Z</time>
      </trkpt>
      <trkpt lat="47.04998" lon="-1.21126">
        <ele>40</ele>
        <time>2023-11-02T01:04:15Z</time>
      </trkpt>
      <trkpt lat="47.05065" lon="-1.211">
        <ele>37</ele>
        <time>2023-11-02T01:05:48Z</time>
      </trkpt>
      <trkpt lat="47.0501" lon="-1.21109">
        <ele>39</ele>
        <time>2023-11-02T01:07:02Z</time>
      </trkpt>
      <trkpt lat="47.04988" lon="-1.21185">
        <ele>41</ele>
        <time>2023-11-02T01:08:17Z</time>
      </trkpt>
      <trkpt lat="47.04994" lon="-1.21259">
        <ele>40</ele>
        <time>2023-11-02T01:09:25Z</time>
      </trkpt>
      <trkpt lat="47.05043" lon="-1.21348">
        <ele>40</ele>
        <time>2023-11-02T01:11:09Z</time>
      </trkpt>
      <trkpt lat="47.05143" lon="-1.21512">
        <ele>34</ele>
        <time>2023-11-02T01:14:29Z</time>
      </trkpt>
      <trkpt lat="47.05249" lon="-1.21587">
        <ele>28</ele>
        <time>2023-11-02T01:17:06Z</time>
      </trkpt>
      <trkpt lat="47.05301" lon="-1.21584">
        <ele>29</ele>
        <time>2023-11-02T01:18:15Z</time>
      </trkpt>
      <trkpt lat="47.05372" lon="-1.21905">
        <ele>30</ele>
        <time>2023-11-02T01:23:22Z</time>
      </trkpt>
      <trkpt lat="47.05377" lon="-1.2201">
        <ele>32</ele>
        <time>2023-11-02T01:24:58Z</time>
      </trkpt>
      <trkpt lat="47.05421" lon="-1.221">
        <ele>34</ele>
        <time>2023-11-02T01:26:39Z</time>
      </trkpt>
      <trkpt lat="47.05487" lon="-1.22111">
        <ele>34</ele>
        <time>2023-11-02T01:28:07Z</time>
      </trkpt>
      <trkpt lat="47.05518" lon="-1.22079">
        <ele>31</ele>
        <time>2023-11-02T01:28:58Z</time>
      </trkpt>
      <trkpt lat="47.05578" lon="-1.221">
        <ele>32</ele>
        <time>2023-11-02T01:30:20Z</time>
      </trkpt>
      <trkpt lat="47.05699" lon="-1.22255">
        <ele>34</ele>
        <time>2023-11-02T01:33:54Z</time>
      </trkpt>
      <trkpt lat="47.05716" lon="-1.22342">
        <ele>31</ele>
        <time>2023-11-02T01:35:17Z</time>
      </trkpt>
      <trkpt lat="47.05701" lon="-1.22435">
        <ele>33</ele>
        <time>2023-11-02T01:36:44Z</time>
      </trkpt>
      <trkpt lat="47.05731" lon="-1.22461">
        <ele>32</ele>
        <time>2023-11-02T01:37:30Z</time>
      </trkpt>
      <trkpt lat="47.05758" lon="-1.22421">
        <ele>29</ele>
        <time>2023-11-02T01:38:21Z</time>
      </trkpt>
      <trkpt lat="47.05785" lon="-1.22475">
        <ele>31</ele>
        <time>2023-11-02T01:39:22Z</time>
      </trkpt>
      <trkpt lat="47.05746" lon="-1.22508">
        <ele>33</ele>
        <time>2023-11-02T01:40:22Z</time>
      </trkpt>
      <trkpt lat="47.05753" lon="-1.22569">
        <ele>40</ele>
        <time>2023-11-02T01:41:18Z</time>
      </trkpt>
      <trkpt lat="47.05915" lon="-1.22486">
        <ele>33</ele>
        <time>2023-11-02T01:45:07Z</time>
      </trkpt>
      <trkpt lat="47.05893" lon="-1.22396">
        <ele>32</ele>
        <time>2023-11-02T01:46:34Z</time>
      </trkpt>
      <trkpt lat="47.06028" lon="-1.2236">
        <ele>37</ele>
        <time>2023-11-02T01:49:37Z</time>
      </trkpt>
      <trkpt lat="47.06074" lon="-1.22407">
        <ele>37</ele>
        <time>2023-11-02T01:50:52Z</time>
      </trkpt>
      <trkpt lat="47.06104" lon="-1.22493">
        <ele>34</ele>
        <time>2023-11-02T01:52:20Z</time>
      </trkpt>
      <trkpt lat="47.06165" lon="-1.2262">
        <ele>31</ele>
        <time>2023-11-02T01:54:41Z</time>
      </trkpt>
      <trkpt lat="47.06225" lon="-1.22666">
        <ele>36</ele>
        <time>2023-11-02T01:56:12Z</time>
      </trkpt>
      <trkpt lat="47.06256" lon="-1.22773">
        <ele>33</ele>
        <time>2023-11-02T01:57:57Z</time>
      </trkpt>
      <trkpt lat="47.06353" lon="-1.22904">
        <ele>34</ele>
        <time>2023-11-02T02:00:53Z</time>
      </trkpt>
      <trkpt lat="47.06427" lon="-1.23004">
        <ele>36</ele>
        <time>2023-11-02T02:03:07Z</time>
      </trkpt>
      <trkpt lat="47.06522" lon="-1.23052">
        <ele>35</ele>
        <time>2023-11-02T02:05:22Z</time>
      </trkpt>
      <trkpt lat="47.06599" lon="-1.22991">
        <ele>39</ele>
        <time>2023-11-02T02:07:18Z</time>
      </trkpt>
      <trkpt lat="47.06615" lon="-1.23108">
        <ele>33</ele>
        <time>2023-11-02T02:09:07Z</time>
      </trkpt>
      <trkpt lat="47.06713" lon="-1.2294">
        <ele>39</ele>
        <time>2023-11-02T02:12:28Z</time>
      </trkpt>
      <trkpt lat="47.06821" lon="-1.22854">
        <ele>45</ele>
        <time>2023-11-02T02:15:12Z</time>
      </trkpt>
      <trkpt lat="47.0686" lon="-1.22706">
        <ele>50</ele>
        <time>2023-11-02T02:17:36Z</time>
      </trkpt>
    </trkseg>
  </trk>
</gpx>